createdAt,value
2022-07-28T00:01:36.756Z,1.00
2022-07-28T00:04:07.084Z,7.20
2022-07-28T00:06:35.568Z,1.00
2022-07-28T00:09:04.239Z,99.90
2022-07-28T00:11:32.789Z,1.00
2022-07-28T00:14:01.380Z,99.90
2022-07-28T00:16:30.004Z,1.00
2022-07-28T00:18:58.712Z,1.00
2022-07-28T00:21:28.720Z,99.90
2022-07-28T00:23:57.396Z,1.00
2022-07-28T00:26:25.913Z,1.00
2022-07-28T00:28:55.433Z,1.00
2022-07-28T00:31:24.035Z,1.00
2022-07-28T00:33:52.613Z,1.00
2022-07-28T00:36:24.628Z,1.00
2022-07-28T00:38:55.752Z,1.00
2022-07-28T00:41:24.445Z,1.00
2022-07-28T00:43:54.837Z,99.90
2022-07-28T00:46:24.426Z,99.90
2022-07-28T00:48:56.017Z,1.00
2022-07-28T00:51:26.754Z,1.00
2022-07-28T00:53:57.389Z,99.90
2022-07-28T00:56:26.730Z,1.00
2022-07-28T00:58:55.427Z,1.00
2022-07-28T01:01:24.256Z,1.00
2022-07-28T01:03:54.976Z,1.00
2022-07-28T01:06:50.240Z,1.00
2022-07-28T01:09:32.471Z,24.10
2022-07-28T01:12:18.789Z,1.00
2022-07-28T01:14:56.279Z,1.00
2022-07-28T01:17:34.225Z,1.00
2022-07-28T01:20:10.799Z,1.00
2022-07-28T01:22:46.621Z,1.00
2022-07-28T01:25:24.417Z,1.00
2022-07-28T01:28:04.094Z,1.00
2022-07-28T01:30:40.192Z,1.00
2022-07-28T01:33:14.847Z,1.00
2022-07-28T01:35:47.632Z,1.00
2022-07-28T01:38:17.792Z,1.00
2022-07-28T01:40:49.954Z,24.40
2022-07-28T01:43:22.497Z,22.50
2022-07-28T01:45:56.127Z,1.00
2022-07-28T01:48:27.238Z,1.00
2022-07-28T01:50:57.495Z,1.00
2022-07-28T01:53:27.722Z,14.30
2022-07-28T01:55:57.386Z,99.90
2022-07-28T01:58:29.296Z,99.90
2022-07-28T02:01:00.398Z,77.10
2022-07-28T02:03:33.022Z,83.70
2022-07-28T02:06:04.391Z,17.20
2022-07-28T02:08:34.794Z,15.40
2022-07-28T02:11:21.313Z,44.30
2022-07-28T02:13:51.697Z,42.30
2022-07-28T02:16:26.544Z,74.30
2022-07-28T02:18:57.075Z,99.90
2022-07-28T02:21:27.781Z,99.90
2022-07-28T02:23:57.441Z,99.90
2022-07-28T02:26:30.084Z,99.90
2022-07-28T02:29:02.591Z,99.90
2022-07-28T02:31:40.556Z,99.90
2022-07-28T02:34:14.055Z,99.90
2022-07-28T02:36:52.668Z,99.90
2022-07-28T02:39:24.665Z,99.90
2022-07-28T02:42:02.823Z,99.90
2022-07-28T02:44:36.571Z,99.90
2022-07-28T02:47:09.043Z,99.90
2022-07-28T02:49:39.645Z,99.90
2022-07-28T02:52:11.289Z,99.90
2022-07-28T02:54:42.344Z,99.90
2022-07-28T02:57:13.545Z,99.90
2022-07-28T02:59:43.957Z,99.90
2022-07-28T03:02:14.530Z,99.90
2022-07-28T03:04:59.876Z,99.90
2022-07-28T03:07:28.867Z,99.90
2022-07-28T03:09:58.680Z,99.90
2022-07-28T03:12:27.730Z,99.90
2022-07-28T03:14:56.767Z,99.90
2022-07-28T03:17:26.709Z,99.90
2022-07-28T03:19:55.191Z,99.90
2022-07-28T03:22:23.632Z,99.90
2022-07-28T03:24:55.125Z,99.90
2022-07-28T03:27:29.276Z,99.90
2022-07-28T03:30:04.021Z,99.90
2022-07-28T03:32:38.275Z,99.90
2022-07-28T03:35:07.890Z,99.90
2022-07-28T03:37:41.826Z,99.90
2022-07-28T03:40:13.191Z,99.90
2022-07-28T03:42:45.018Z,99.90
2022-07-28T03:45:13.995Z,1.00
2022-07-28T03:47:52.321Z,22.10
2022-07-28T03:50:24.319Z,82.20
2022-07-28T03:52:53.363Z,93.30
2022-07-28T03:55:22.538Z,99.90
2022-07-28T03:57:51.158Z,99.90
2022-07-28T04:00:20.184Z,99.90
2022-07-28T04:02:51.266Z,99.90
2022-07-28T04:05:21.240Z,99.90
2022-07-28T04:07:51.793Z,99.90
2022-07-28T04:10:20.252Z,99.90
2022-07-28T04:12:52.212Z,95.40
2022-07-28T04:15:21.249Z,94.10
2022-07-28T04:17:52.143Z,93.10
2022-07-28T04:20:22.300Z,90.10
2022-07-28T04:22:51.424Z,71.60
2022-07-28T04:25:22.717Z,49.30
2022-07-28T04:27:51.807Z,35.20
2022-07-28T04:30:24.833Z,24.90
2022-07-28T04:32:56.278Z,23.80
2022-07-28T04:35:26.768Z,22.50
2022-07-28T04:37:58.596Z,20.20
2022-07-28T04:40:27.972Z,19.70
2022-07-28T04:42:56.991Z,19.30
2022-07-28T04:45:25.553Z,19.80
2022-07-28T04:47:55.461Z,20.30
2022-07-28T04:50:23.959Z,20.40
2022-07-28T04:52:59.767Z,20.10
2022-07-28T04:55:28.383Z,20.40
2022-07-28T04:57:56.875Z,20.50
2022-07-28T05:00:26.685Z,20.00
2022-07-28T05:02:58.497Z,19.00
2022-07-28T05:05:27.138Z,17.90
2022-07-28T05:07:55.625Z,15.60
2022-07-28T05:10:24.187Z,15.10
2022-07-28T05:12:54.573Z,14.80
2022-07-28T05:15:23.049Z,14.00
2022-07-28T05:17:51.653Z,13.10
2022-07-28T05:20:21.623Z,12.00
2022-07-28T05:22:53.720Z,12.70
2022-07-28T05:25:23.699Z,11.80
2022-07-28T05:27:53.268Z,11.40
2022-07-28T05:30:21.981Z,10.90
2022-07-28T05:32:51.224Z,10.70
2022-07-28T05:35:21.143Z,10.60
2022-07-28T05:37:49.676Z,9.70
2022-07-28T05:40:18.445Z,9.80
2022-07-28T05:42:47.986Z,10.10
2022-07-28T05:45:17.693Z,9.80
2022-07-28T05:47:48.358Z,10.00
2022-07-28T05:50:18.301Z,9.60
2022-07-28T05:52:48.963Z,9.90
2022-07-28T05:55:18.036Z,10.00
2022-07-28T05:57:46.856Z,9.90
2022-07-28T06:00:17.338Z,10.20
2022-07-28T06:02:47.567Z,9.00
2022-07-28T06:05:17.247Z,8.50
2022-07-28T06:07:47.459Z,8.40
2022-07-28T06:10:18.394Z,8.30
2022-07-28T06:12:48.479Z,7.90
2022-07-28T06:15:18.579Z,8.40
2022-07-28T06:17:47.105Z,9.40
2022-07-28T06:20:17.021Z,9.00
2022-07-28T06:22:48.463Z,8.10
2022-07-28T06:25:18.161Z,7.20
2022-07-28T06:27:46.818Z,7.10
2022-07-28T06:30:16.311Z,5.60
2022-07-28T06:32:45.074Z,4.50
2022-07-28T06:35:16.603Z,3.70
2022-07-28T06:37:47.571Z,4.20
2022-07-28T06:40:17.319Z,4.50
2022-07-28T06:42:46.889Z,5.00
2022-07-28T06:45:20.795Z,5.60
2022-07-28T06:47:50.313Z,5.60
2022-07-28T06:50:25.673Z,4.10
2022-07-28T06:52:58.949Z,3.20
2022-07-28T06:55:35.218Z,2.50
2022-07-28T06:58:04.503Z,2.40
2022-07-28T07:00:34.823Z,3.70
2022-07-28T07:03:03.485Z,3.40
2022-07-28T07:05:32.592Z,4.50
2022-07-28T07:08:03.126Z,4.40
2022-07-28T07:10:33.238Z,4.20
2022-07-28T07:13:01.744Z,4.10
2022-07-28T07:15:30.451Z,4.60
2022-07-28T07:18:00.934Z,3.70
2022-07-28T07:20:29.510Z,5.00
2022-07-28T07:22:58.033Z,5.20
2022-07-28T07:25:28.126Z,4.70
2022-07-28T07:27:56.703Z,5.10
2022-07-28T07:30:25.287Z,5.10
2022-07-28T07:32:54.578Z,5.50
2022-07-28T07:35:23.139Z,5.90
2022-07-28T07:37:51.876Z,8.00
2022-07-28T07:40:20.459Z,9.10
2022-07-28T07:42:50.381Z,9.00
2022-07-28T07:45:21.632Z,7.70
2022-07-28T07:47:50.426Z,6.70
2022-07-28T07:50:19.015Z,7.70
2022-07-28T07:52:49.986Z,8.80
2022-07-28T07:55:18.812Z,9.30
2022-07-28T07:57:47.399Z,10.40
2022-07-28T08:00:28.295Z,10.30
2022-07-28T08:02:58.309Z,9.90
2022-07-28T08:05:35.584Z,9.10
2022-07-28T08:08:06.531Z,7.50
2022-07-28T08:10:35.695Z,7.30
2022-07-28T08:13:04.807Z,8.20
2022-07-28T08:15:35.668Z,9.10
2022-07-28T08:18:04.440Z,9.50
2022-07-28T08:20:33.003Z,10.10
2022-07-28T08:23:02.066Z,10.10
2022-07-28T08:25:30.648Z,9.90
2022-07-28T08:27:59.791Z,10.00
2022-07-28T08:30:32.344Z,9.70
2022-07-28T08:33:03.589Z,9.80
2022-07-28T08:35:34.684Z,9.70
2022-07-28T08:38:05.648Z,10.30
2022-07-28T08:40:36.779Z,10.60
2022-07-28T08:43:15.448Z,10.50
2022-07-28T08:45:45.925Z,10.60
2022-07-28T08:48:17.604Z,10.90
2022-07-28T08:50:47.415Z,10.70
2022-07-28T08:53:16.587Z,10.70
2022-07-28T08:55:45.514Z,10.30
2022-07-28T08:58:15.326Z,10.10
2022-07-28T09:00:43.888Z,10.00
2022-07-28T09:03:14.382Z,10.40
2022-07-28T09:05:45.202Z,10.70
2022-07-28T09:08:13.898Z,10.70
2022-07-28T09:10:42.639Z,11.40
2022-07-28T09:13:13.551Z,10.50
2022-07-28T09:15:44.731Z,10.50
2022-07-28T09:18:14.016Z,10.40
2022-07-28T09:20:46.600Z,9.80
2022-07-28T09:23:42.077Z,9.60
2022-07-28T09:26:12.570Z,10.30
2022-07-28T09:28:53.080Z,10.70
2022-07-28T09:31:22.697Z,11.30
2022-07-28T09:33:57.244Z,10.70
2022-07-28T09:36:27.636Z,10.90
2022-07-28T09:38:56.828Z,10.50
2022-07-28T09:41:25.700Z,10.10
2022-07-28T09:43:55.788Z,10.20
2022-07-28T09:46:29.522Z,10.20
2022-07-28T09:49:00.262Z,9.30
2022-07-28T09:51:32.111Z,9.80
2022-07-28T09:54:09.675Z,9.00
2022-07-28T09:56:38.614Z,9.20
2022-07-28T09:59:09.150Z,9.20
2022-07-28T10:01:53.407Z,8.90
2022-07-28T10:04:33.175Z,9.50
2022-07-28T10:07:10.108Z,9.70
2022-07-28T10:09:39.892Z,9.60
2022-07-28T10:12:19.834Z,9.70
2022-07-28T10:14:50.482Z,9.60
2022-07-28T10:17:29.295Z,9.60
2022-07-28T10:20:00.678Z,9.60
2022-07-28T10:22:33.824Z,9.80
2022-07-28T10:25:07.063Z,9.60
2022-07-28T10:27:36.127Z,9.20
2022-07-28T10:30:07.528Z,9.50
2022-07-28T10:32:42.601Z,8.50
2022-07-28T10:35:13.790Z,8.80
2022-07-28T10:37:53.247Z,8.70
2022-07-28T10:40:26.719Z,8.90
2022-07-28T10:42:56.501Z,8.60
2022-07-28T10:45:42.047Z,8.60
2022-07-28T10:48:15.489Z,8.30
2022-07-28T10:50:45.459Z,7.90
2022-07-28T10:53:30.254Z,8.20
2022-07-28T10:56:04.324Z,8.10
2022-07-28T10:58:47.311Z,8.10
2022-07-28T11:01:48.284Z,8.60
2022-07-28T11:04:52.606Z,9.30
2022-07-28T11:07:22.417Z,9.60
2022-07-28T11:09:55.061Z,8.70
2022-07-28T11:12:52.250Z,8.30
2022-07-28T11:15:35.207Z,8.60
2022-07-28T11:18:06.963Z,9.00
2022-07-28T11:21:07.750Z,8.40
2022-07-28T11:23:46.205Z,8.20
2022-07-28T11:26:39.314Z,7.80
2022-07-28T11:29:22.663Z,7.60
2022-07-28T11:32:01.826Z,7.70
2022-07-28T11:35:05.297Z,8.50
2022-07-28T11:37:54.000Z,7.90
2022-07-28T11:40:33.761Z,7.80
2022-07-28T11:43:36.552Z,6.70
2022-07-28T11:46:37.411Z,6.70
2022-07-28T11:49:25.052Z,6.90
2022-07-28T11:52:17.557Z,7.40
2022-07-28T11:54:52.870Z,7.20
2022-07-28T11:57:24.485Z,7.40
2022-07-28T11:59:56.079Z,7.40
2022-07-28T12:02:28.254Z,7.60
2022-07-28T12:05:03.605Z,7.90
2022-07-28T12:07:41.630Z,7.90
2022-07-28T12:10:53.468Z,7.90
2022-07-28T12:13:28.095Z,7.20
2022-07-28T12:15:56.729Z,7.60
2022-07-28T12:18:25.395Z,7.30
2022-07-28T12:20:55.725Z,7.10
2022-07-28T12:23:45.479Z,6.80
2022-07-28T12:26:40.540Z,6.70
2022-07-28T12:29:12.593Z,6.60
2022-07-28T12:31:54.217Z,6.60
2022-07-28T12:34:28.800Z,6.60
2022-07-28T12:37:02.125Z,7.00
2022-07-28T12:39:32.585Z,6.90
2022-07-28T12:42:04.502Z,6.80
2022-07-28T12:44:39.343Z,6.50
2022-07-28T12:47:09.722Z,6.70
2022-07-28T12:49:39.457Z,7.30
2022-07-28T12:52:21.521Z,7.20
2022-07-28T12:54:54.566Z,7.40
2022-07-28T12:57:51.528Z,7.40
2022-07-28T13:00:23.865Z,7.80
2022-07-28T13:02:55.303Z,7.70
2022-07-28T13:05:50.150Z,7.80
2022-07-28T13:08:19.033Z,7.30
2022-07-28T13:10:51.689Z,7.10
2022-07-28T13:13:24.454Z,7.10
2022-07-28T13:16:15.831Z,6.80
2022-07-28T13:18:46.148Z,6.60
2022-07-28T13:21:16.726Z,6.50
2022-07-28T13:23:45.733Z,6.60
2022-07-28T13:26:14.271Z,6.30
2022-07-28T13:28:42.878Z,6.60
2022-07-28T13:31:13.690Z,6.50
2022-07-28T13:33:43.554Z,7.00
2022-07-28T13:36:13.145Z,6.80
2022-07-28T13:38:42.780Z,7.20
2022-07-28T13:41:11.855Z,6.60
2022-07-28T13:43:40.460Z,6.90
2022-07-28T13:46:09.003Z,6.80
2022-07-28T13:48:57.679Z,6.90
2022-07-28T13:51:30.752Z,7.00
2022-07-28T13:54:03.541Z,6.70
2022-07-28T13:56:32.142Z,6.30
2022-07-28T13:59:01.813Z,6.30
2022-07-28T14:01:31.335Z,6.00
2022-07-28T14:04:04.298Z,6.10
2022-07-28T14:06:34.691Z,6.10
2022-07-28T14:09:04.436Z,6.30
2022-07-28T14:11:35.719Z,6.70
2022-07-28T14:14:06.236Z,6.80
2022-07-28T14:16:35.019Z,6.70
2022-07-28T14:19:03.824Z,6.60
2022-07-28T14:21:35.761Z,6.90
2022-07-28T14:24:06.003Z,7.00
2022-07-28T14:26:36.084Z,7.20
2022-07-28T14:29:11.562Z,7.10
2022-07-28T14:31:40.579Z,6.90
2022-07-28T14:34:10.320Z,7.00
2022-07-28T14:36:40.894Z,7.30
2022-07-28T14:39:12.568Z,7.20
2022-07-28T14:41:42.763Z,7.40
2022-07-28T14:44:11.616Z,7.20
2022-07-28T14:46:44.011Z,7.40
2022-07-28T14:49:12.626Z,7.40
2022-07-28T14:51:44.922Z,7.30
2022-07-28T14:54:13.907Z,6.80
2022-07-28T14:56:43.008Z,6.90
2022-07-28T14:59:11.515Z,7.10
2022-07-28T15:01:40.249Z,7.10
2022-07-28T15:04:10.274Z,7.20
2022-07-28T15:06:38.822Z,7.40
2022-07-28T15:09:09.509Z,7.50
2022-07-28T15:11:39.828Z,7.50
2022-07-28T15:14:08.566Z,7.50
2022-07-28T15:16:38.418Z,7.30
2022-07-28T15:19:09.447Z,7.10
2022-07-28T15:21:39.970Z,7.10
2022-07-28T15:24:10.672Z,7.20
2022-07-28T15:26:39.611Z,7.00
2022-07-28T15:29:08.822Z,7.00
2022-07-28T15:31:37.858Z,7.10
2022-07-28T15:34:08.363Z,7.20
2022-07-28T15:36:38.956Z,7.30
2022-07-28T15:39:13.826Z,7.10
2022-07-28T15:41:45.432Z,7.10
2022-07-28T15:44:16.382Z,7.10
2022-07-28T15:46:46.617Z,6.90
2022-07-28T15:49:18.545Z,6.90
2022-07-28T15:51:49.361Z,7.00
2022-07-28T15:54:19.164Z,7.10
2022-07-28T15:56:49.323Z,7.20
2022-07-28T15:59:18.007Z,7.20
2022-07-28T16:01:46.617Z,7.30
2022-07-28T16:04:15.546Z,7.10
2022-07-28T16:07:01.634Z,7.10
2022-07-28T16:09:46.011Z,7.10
2022-07-28T16:12:17.548Z,7.20
2022-07-28T16:14:47.095Z,7.20
2022-07-28T16:17:15.950Z,7.20
2022-07-28T16:19:49.893Z,7.10
2022-07-28T16:22:20.357Z,7.20
2022-07-28T16:24:50.841Z,7.20
2022-07-28T16:27:20.883Z,6.90
2022-07-28T16:29:50.694Z,7.20
2022-07-28T16:32:19.221Z,7.20
2022-07-28T16:34:49.202Z,7.10
2022-07-28T16:37:19.810Z,7.10
2022-07-28T16:39:49.575Z,7.20
2022-07-28T16:42:18.145Z,7.00
2022-07-28T16:44:48.298Z,7.10
2022-07-28T16:47:17.235Z,7.20
2022-07-28T16:49:46.491Z,7.30
2022-07-28T16:52:15.534Z,7.50
2022-07-28T16:54:44.227Z,7.70
2022-07-28T16:57:14.388Z,7.80
2022-07-28T16:59:47.947Z,7.50
2022-07-28T17:02:19.314Z,7.40
2022-07-28T17:04:48.519Z,7.40
2022-07-28T17:07:17.252Z,7.80
2022-07-28T17:09:46.012Z,7.50
2022-07-28T17:12:14.612Z,7.60
2022-07-28T17:14:43.247Z,7.50
2022-07-28T17:17:13.271Z,7.40
2022-07-28T17:19:46.624Z,7.50
2022-07-28T17:22:15.947Z,7.60
2022-07-28T17:24:44.402Z,7.50
2022-07-28T17:30:01.517Z,7.60
2022-07-28T17:32:30.552Z,7.70
2022-07-28T17:35:00.469Z,7.90
2022-07-28T17:37:29.430Z,8.00
2022-07-28T17:39:59.306Z,8.10
2022-07-28T17:42:27.752Z,8.20
2022-07-28T17:44:59.487Z,8.30
2022-07-28T17:47:35.932Z,8.40
2022-07-28T17:50:09.389Z,8.50
2022-07-28T17:52:37.909Z,8.70
2022-07-28T17:55:24.843Z,8.80
2022-07-28T17:57:56.135Z,9.00
2022-07-28T18:00:24.835Z,9.10
2022-07-28T18:02:53.415Z,9.20
2022-07-28T18:05:24.454Z,9.30
2022-07-28T18:07:57.425Z,9.50
2022-07-28T18:10:27.809Z,9.60
2022-07-28T18:12:56.374Z,9.70
2022-07-28T18:15:24.813Z,10.00
2022-07-28T18:17:55.517Z,10.10
2022-07-28T18:20:26.656Z,10.20
2022-07-28T18:22:57.390Z,10.50
2022-07-28T18:25:26.559Z,10.60
2022-07-28T18:27:55.343Z,10.80
2022-07-28T18:30:24.128Z,10.90
2022-07-28T18:32:53.249Z,11.10
2022-07-28T18:35:23.377Z,11.30
2022-07-28T18:37:53.288Z,11.40
2022-07-28T18:40:22.082Z,11.60
2022-07-28T18:42:51.688Z,12.30
2022-07-28T18:45:21.201Z,12.00
2022-07-28T18:47:49.636Z,12.30
2022-07-28T18:50:30.901Z,12.40
2022-07-28T18:53:01.877Z,12.60
2022-07-28T18:55:31.486Z,12.60
2022-07-28T18:57:59.984Z,12.60
2022-07-28T19:00:28.704Z,12.70
2022-07-28T19:02:57.391Z,12.90
2022-07-28T19:05:26.188Z,13.00
2022-07-28T19:07:54.746Z,13.10
2022-07-28T19:10:24.829Z,13.30
2022-07-28T19:12:54.136Z,13.40
2022-07-28T19:15:23.300Z,13.50
2022-07-28T19:18:10.292Z,13.60
2022-07-28T19:20:42.513Z,13.70
2022-07-28T19:23:11.132Z,13.90
2022-07-28T19:25:41.399Z,14.10
2022-07-28T19:28:09.938Z,14.20
2022-07-28T19:30:39.707Z,14.40
2022-07-28T19:33:09.566Z,14.60
2022-07-28T19:35:38.788Z,14.90
2022-07-28T19:38:07.319Z,15.10
2022-07-28T19:40:36.060Z,15.30
2022-07-28T19:43:06.064Z,15.50
2022-07-28T19:45:35.425Z,15.70
2022-07-28T19:48:03.984Z,16.10
2022-07-28T19:50:32.617Z,16.40
2022-07-28T19:53:02.375Z,16.40
2022-07-28T19:55:32.436Z,17.30
2022-07-28T19:58:01.563Z,17.50
2022-07-28T20:00:31.747Z,18.30
2022-07-28T20:03:01.836Z,18.60
2022-07-28T20:05:30.687Z,19.50
2022-07-28T20:07:59.172Z,20.20
2022-07-28T20:10:28.767Z,20.80
2022-07-28T20:12:57.315Z,21.50
2022-07-28T20:15:26.252Z,22.10
2022-07-28T20:17:56.140Z,22.60
2022-07-28T20:20:25.014Z,23.00
2022-07-28T20:22:53.532Z,23.20
2022-07-28T20:25:22.025Z,23.50
2022-07-28T20:27:51.213Z,23.50
2022-07-28T20:30:20.429Z,23.90
2022-07-28T20:32:48.971Z,23.60
2022-07-28T20:35:18.873Z,23.50
2022-07-28T20:37:47.716Z,23.30
2022-07-28T20:40:16.290Z,22.80
2022-07-28T20:42:48.622Z,22.00
2022-07-28T20:45:21.059Z,22.30
2022-07-28T20:47:49.575Z,21.70
2022-07-28T20:50:20.673Z,21.70
2022-07-28T20:52:49.179Z,21.50
2022-07-28T20:55:17.753Z,21.20
2022-07-28T20:57:53.838Z,20.80
2022-07-28T21:00:22.900Z,20.60
2022-07-28T21:02:51.617Z,20.50
2022-07-28T21:05:26.716Z,20.10
2022-07-28T21:08:09.128Z,20.40
2022-07-28T21:10:39.053Z,20.00
2022-07-28T21:13:07.586Z,20.00
2022-07-28T21:15:36.109Z,20.10
2022-07-28T21:18:04.995Z,20.50
2022-07-28T21:20:34.859Z,20.80
2022-07-28T21:23:03.353Z,21.00
2022-07-28T21:25:32.723Z,21.60
2022-07-28T21:28:18.936Z,21.70
2022-07-28T21:30:47.530Z,22.10
2022-07-28T21:33:22.268Z,22.20
2022-07-28T21:35:52.914Z,22.40
2022-07-28T21:38:21.944Z,22.60
2022-07-28T21:40:51.679Z,22.70
2022-07-28T21:43:20.401Z,22.80
2022-07-28T21:45:49.120Z,22.80
2022-07-28T21:48:19.352Z,23.00
2022-07-28T21:50:47.929Z,23.10
2022-07-28T21:53:17.874Z,23.30
2022-07-28T21:55:47.207Z,23.30
2022-07-28T21:58:16.591Z,23.40
2022-07-28T22:00:45.306Z,23.50
2022-07-28T22:03:13.817Z,23.70
2022-07-28T22:05:43.160Z,23.80
2022-07-28T22:08:11.854Z,24.00
2022-07-28T22:10:41.768Z,23.80
2022-07-28T22:13:10.415Z,23.80
2022-07-28T22:15:39.092Z,23.70
2022-07-28T22:18:07.580Z,23.70
2022-07-28T22:20:36.400Z,23.40
2022-07-28T22:23:05.145Z,23.40
2022-07-28T22:25:54.985Z,23.20
2022-07-28T22:28:29.449Z,23.10
2022-07-28T22:31:08.677Z,23.10
2022-07-28T22:33:38.793Z,23.10
2022-07-28T22:36:08.677Z,23.30
2022-07-28T22:38:38.124Z,23.30
2022-07-28T22:41:08.006Z,23.40
2022-07-28T22:43:37.173Z,23.60
2022-07-28T22:46:05.867Z,23.50
2022-07-28T22:48:34.431Z,23.60
2022-07-28T22:51:02.918Z,23.70
2022-07-28T22:53:31.499Z,24.00
2022-07-28T22:58:49.144Z,24.60
2022-07-28T23:01:17.829Z,24.70
2022-07-28T23:03:47.521Z,24.90
2022-07-28T23:06:16.249Z,25.20
2022-07-28T23:08:44.773Z,25.50
2022-07-28T23:11:13.273Z,25.70
2022-07-28T23:13:41.876Z,26.00
2022-07-28T23:16:14.363Z,26.10
2022-07-28T23:18:44.158Z,26.30
2022-07-28T23:21:13.610Z,26.70
2022-07-28T23:23:43.466Z,27.00
2022-07-28T23:26:12.005Z,27.50
2022-07-28T23:28:41.983Z,28.10
2022-07-28T23:31:14.965Z,28.80
2022-07-28T23:33:56.005Z,29.60
2022-07-28T23:36:27.837Z,30.20
2022-07-28T23:38:57.872Z,31.50
2022-07-28T23:41:27.881Z,32.20
2022-07-28T23:43:56.489Z,33.10
2022-07-28T23:46:26.554Z,33.90
2022-07-28T23:48:55.088Z,35.10
2022-07-28T23:51:46.884Z,36.20
2022-07-28T23:54:14.534Z,37.40
2022-07-28T23:56:43.849Z,39.60
2022-07-28T23:59:14.427Z,42.00
